sensor_id;sensor_type;location;lat;lon;timestamp;P1;durP1;ratioP1;P2;durP2;ratioP2
45408;SDS011;31162;51.076;3.784;2023-01-04T00:01:10;7.43;;;4.75;;
45408;SDS011;31162;51.076;3.784;2023-01-04T00:03:38;8.00;;;4.78;;
45408;SDS011;31162;51.076;3.784;2023-01-04T00:06:05;9.13;;;4.70;;
45408;SDS011;31162;51.076;3.784;2023-01-04T00:08:32;6.25;;;4.45;;
45408;SDS011;31162;51.076;3.784;2023-01-04T00:11:05;6.60;;;4.45;;
45408;SDS011;31162;51.076;3.784;2023-01-04T00:13:34;6.53;;;4.57;;
45408;SDS011;31162;51.076;3.784;2023-01-04T00:16:03;7.38;;;4.25;;
45408;SDS011;31162;51.076;3.784;2023-01-04T00:18:32;8.50;;;4.18;;
45408;SDS011;31162;51.076;3.784;2023-01-04T00:23:38;7.55;;;4.05;;
45408;SDS011;31162;51.076;3.784;2023-01-04T00:26:11;4.82;;;3.60;;
45408;SDS011;31162;51.076;3.784;2023-01-04T00:28:39;6.07;;;4.05;;
45408;SDS011;31162;51.076;3.784;2023-01-04T00:31:06;3.95;;;3.50;;
45408;SDS011;31162;51.076;3.784;2023-01-04T00:33:33;4.72;;;3.90;;
45408;SDS011;31162;51.076;3.784;2023-01-04T00:36:06;5.78;;;3.63;;
45408;SDS011;31162;51.076;3.784;2023-01-04T00:38:37;5.85;;;3.70;;
45408;SDS011;31162;51.076;3.784;2023-01-04T00:41:03;5.35;;;3.80;;
45408;SDS011;31162;51.076;3.784;2023-01-04T00:43:30;5.00;;;3.55;;
45408;SDS011;31162;51.076;3.784;2023-01-04T00:45:56;5.43;;;3.95;;
45408;SDS011;31162;51.076;3.784;2023-01-04T00:48:22;5.60;;;3.72;;
45408;SDS011;31162;51.076;3.784;2023-01-04T00:50:48;8.60;;;3.65;;
45408;SDS011;31162;51.076;3.784;2023-01-04T00:53:15;7.65;;;3.80;;
45408;SDS011;31162;51.076;3.784;2023-01-04T00:55:41;5.28;;;3.38;;
45408;SDS011;31162;51.076;3.784;2023-01-04T00:58:07;5.50;;;3.92;;
45408;SDS011;31162;51.076;3.784;2023-01-04T01:00:33;6.28;;;3.67;;
45408;SDS011;31162;51.076;3.784;2023-01-04T01:02:59;6.13;;;3.53;;
45408;SDS011;31162;51.076;3.784;2023-01-04T01:05:25;6.55;;;3.55;;
45408;SDS011;31162;51.076;3.784;2023-01-04T01:07:51;4.20;;;3.63;;
45408;SDS011;31162;51.076;3.784;2023-01-04T01:10:17;6.22;;;3.40;;
45408;SDS011;31162;51.076;3.784;2023-01-04T01:12:42;3.28;;;2.97;;
45408;SDS011;31162;51.076;3.784;2023-01-04T01:15:08;3.95;;;3.05;;
45408;SDS011;31162;51.076;3.784;2023-01-04T01:17:34;4.43;;;3.35;;
45408;SDS011;31162;51.076;3.784;2023-01-04T01:20:01;5.63;;;3.25;;
45408;SDS011;31162;51.076;3.784;2023-01-04T01:22:28;4.82;;;3.10;;
45408;SDS011;31162;51.076;3.784;2023-01-04T01:24:54;4.45;;;2.80;;
45408;SDS011;31162;51.076;3.784;2023-01-04T01:27:20;4.18;;;2.85;;
45408;SDS011;31162;51.076;3.784;2023-01-04T01:29:45;4.50;;;3.30;;
45408;SDS011;31162;51.076;3.784;2023-01-04T01:32:11;6.68;;;2.88;;
45408;SDS011;31162;51.076;3.784;2023-01-04T01:34:37;4.70;;;3.05;;
45408;SDS011;31162;51.076;3.784;2023-01-04T01:37:02;3.85;;;2.63;;
45408;SDS011;31162;51.076;3.784;2023-01-04T01:39:28;4.88;;;2.50;;
45408;SDS011;31162;51.076;3.784;2023-01-04T01:41:54;5.25;;;2.70;;
45408;SDS011;31162;51.076;3.784;2023-01-04T01:47:21;7.32;;;3.28;;
45408;SDS011;31162;51.076;3.784;2023-01-04T01:49:50;5.05;;;3.20;;
45408;SDS011;31162;51.076;3.784;2023-01-04T01:52:22;7.22;;;3.17;;
45408;SDS011;31162;51.076;3.784;2023-01-04T01:54:52;4.53;;;2.90;;
45408;SDS011;31162;51.076;3.784;2023-01-04T01:57:22;3.65;;;3.08;;
45408;SDS011;31162;51.076;3.784;2023-01-04T01:59:52;6.28;;;3.10;;
45408;SDS011;31162;51.076;3.784;2023-01-04T02:02:21;4.22;;;2.80;;
45408;SDS011;31162;51.076;3.784;2023-01-04T02:04:48;5.18;;;3.08;;
45408;SDS011;31162;51.076;3.784;2023-01-04T02:07:15;4.32;;;3.10;;
45408;SDS011;31162;51.076;3.784;2023-01-04T02:09:46;3.55;;;2.88;;
45408;SDS011;31162;51.076;3.784;2023-01-04T02:12:14;5.72;;;3.13;;
45408;SDS011;31162;51.076;3.784;2023-01-04T02:14:40;7.28;;;3.17;;
45408;SDS011;31162;51.076;3.784;2023-01-04T02:30:30;5.22;;;2.78;;
45408;SDS011;31162;51.076;3.784;2023-01-04T02:44:31;6.03;;;3.30;;
45408;SDS011;31162;51.076;3.784;2023-01-04T02:50:34;6.00;;;3.42;;
45408;SDS011;31162;51.076;3.784;2023-01-04T03:01:31;6.72;;;3.33;;
45408;SDS011;31162;51.076;3.784;2023-01-04T03:04:43;5.22;;;3.50;;
45408;SDS011;31162;51.076;3.784;2023-01-04T03:08:04;6.00;;;3.50;;
45408;SDS011;31162;51.076;3.784;2023-01-04T03:10:43;6.00;;;3.55;;
45408;SDS011;31162;51.076;3.784;2023-01-04T03:16:53;8.52;;;4.00;;
45408;SDS011;31162;51.076;3.784;2023-01-04T03:19:21;6.93;;;4.10;;
45408;SDS011;31162;51.076;3.784;2023-01-04T03:22:07;4.78;;;3.30;;
45408;SDS011;31162;51.076;3.784;2023-01-04T03:24:56;4.78;;;3.08;;
45408;SDS011;31162;51.076;3.784;2023-01-04T03:27:42;7.00;;;3.17;;
45408;SDS011;31162;51.076;3.784;2023-01-04T03:30:29;3.78;;;3.30;;
45408;SDS011;31162;51.076;3.784;2023-01-04T03:33:16;6.25;;;2.97;;
45408;SDS011;31162;51.076;3.784;2023-01-04T03:38:51;3.55;;;3.08;;
45408;SDS011;31162;51.076;3.784;2023-01-04T03:41:46;4.05;;;2.75;;
45408;SDS011;31162;51.076;3.784;2023-01-04T03:50:51;5.03;;;2.50;;
45408;SDS011;31162;51.076;3.784;2023-01-04T03:54:01;9.38;;;3.20;;
45408;SDS011;31162;51.076;3.784;2023-01-04T03:56:38;4.72;;;2.90;;
45408;SDS011;31162;51.076;3.784;2023-01-04T03:59:07;6.78;;;2.58;;
45408;SDS011;31162;51.076;3.784;2023-01-04T04:01:34;5.13;;;2.72;;
45408;SDS011;31162;51.076;3.784;2023-01-04T04:04:01;5.10;;;2.60;;
45408;SDS011;31162;51.076;3.784;2023-01-04T04:06:45;4.80;;;2.58;;
45408;SDS011;31162;51.076;3.784;2023-01-04T04:09:29;5.18;;;2.63;;
45408;SDS011;31162;51.076;3.784;2023-01-04T04:11:55;4.43;;;2.70;;
45408;SDS011;31162;51.076;3.784;2023-01-04T04:14:21;5.05;;;2.40;;
45408;SDS011;31162;51.076;3.784;2023-01-04T04:16:47;4.70;;;3.25;;
45408;SDS011;31162;51.076;3.784;2023-01-04T04:19:13;8.90;;;5.75;;
45408;SDS011;31162;51.076;3.784;2023-01-04T04:21:39;7.43;;;5.53;;
45408;SDS011;31162;51.076;3.784;2023-01-04T04:24:04;3.58;;;2.80;;
45408;SDS011;31162;51.076;3.784;2023-01-04T04:26:30;6.45;;;2.97;;
45408;SDS011;31162;51.076;3.784;2023-01-04T04:28:56;4.65;;;2.70;;
45408;SDS011;31162;51.076;3.784;2023-01-04T04:31:22;4.15;;;2.80;;
45408;SDS011;31162;51.076;3.784;2023-01-04T04:33:48;3.40;;;2.60;;
45408;SDS011;31162;51.076;3.784;2023-01-04T04:36:13;2.85;;;2.58;;
45408;SDS011;31162;51.076;3.784;2023-01-04T04:38:39;5.82;;;2.80;;
45408;SDS011;31162;51.076;3.784;2023-01-04T04:41:06;10.93;;;9.82;;
45408;SDS011;31162;51.076;3.784;2023-01-04T04:43:54;5.03;;;2.67;;
45408;SDS011;31162;51.076;3.784;2023-01-04T04:46:19;3.35;;;2.45;;
45408;SDS011;31162;51.076;3.784;2023-01-04T04:48:45;3.30;;;2.65;;
45408;SDS011;31162;51.076;3.784;2023-01-04T04:51:11;4.30;;;2.42;;
45408;SDS011;31162;51.076;3.784;2023-01-04T04:53:37;5.82;;;2.40;;
45408;SDS011;31162;51.076;3.784;2023-01-04T04:56:03;3.83;;;2.38;;
45408;SDS011;31162;51.076;3.784;2023-01-04T04:58:29;2.60;;;2.40;;
45408;SDS011;31162;51.076;3.784;2023-01-04T05:00:54;3.70;;;2.25;;
45408;SDS011;31162;51.076;3.784;2023-01-04T05:03:20;4.57;;;2.92;;
45408;SDS011;31162;51.076;3.784;2023-01-04T05:05:46;7.95;;;6.50;;
45408;SDS011;31162;51.076;3.784;2023-01-04T05:08:11;2.90;;;2.70;;
45408;SDS011;31162;51.076;3.784;2023-01-04T05:10:37;3.15;;;2.85;;
45408;SDS011;31162;51.076;3.784;2023-01-04T05:13:03;4.22;;;3.08;;
45408;SDS011;31162;51.076;3.784;2023-01-04T05:15:31;4.47;;;3.05;;
45408;SDS011;31162;51.076;3.784;2023-01-04T05:17:59;3.08;;;2.70;;
45408;SDS011;31162;51.076;3.784;2023-01-04T05:20:25;4.07;;;2.83;;
45408;SDS011;31162;51.076;3.784;2023-01-04T05:22:51;5.00;;;2.92;;
45408;SDS011;31162;51.076;3.784;2023-01-04T05:25:17;4.32;;;2.63;;
45408;SDS011;31162;51.076;3.784;2023-01-04T05:27:43;3.00;;;2.63;;
45408;SDS011;31162;51.076;3.784;2023-01-04T05:30:09;3.58;;;2.33;;
45408;SDS011;31162;51.076;3.784;2023-01-04T05:32:55;3.15;;;2.10;;
45408;SDS011;31162;51.076;3.784;2023-01-04T05:35:21;2.45;;;2.25;;
45408;SDS011;31162;51.076;3.784;2023-01-04T05:37:47;2.85;;;2.05;;
45408;SDS011;31162;51.076;3.784;2023-01-04T05:40:13;2.20;;;2.05;;
45408;SDS011;31162;51.076;3.784;2023-01-04T05:42:38;3.78;;;2.22;;
45408;SDS011;31162;51.076;3.784;2023-01-04T05:45:04;70.47;;;62.33;;
45408;SDS011;31162;51.076;3.784;2023-01-04T05:47:31;3.15;;;2.38;;
45408;SDS011;31162;51.076;3.784;2023-01-04T05:49:57;2.22;;;2.03;;
45408;SDS011;31162;51.076;3.784;2023-01-04T05:52:23;3.33;;;2.55;;
45408;SDS011;31162;51.076;3.784;2023-01-04T05:54:48;2.60;;;2.40;;
45408;SDS011;31162;51.076;3.784;2023-01-04T05:57:14;2.67;;;2.42;;
45408;SDS011;31162;51.076;3.784;2023-01-04T05:59:40;3.10;;;2.50;;
45408;SDS011;31162;51.076;3.784;2023-01-04T06:02:06;3.40;;;3.10;;
45408;SDS011;31162;51.076;3.784;2023-01-04T06:04:37;3.00;;;2.80;;
45408;SDS011;31162;51.076;3.784;2023-01-04T06:07:03;3.35;;;2.78;;
45408;SDS011;31162;51.076;3.784;2023-01-04T06:09:29;3.30;;;3.00;;
45408;SDS011;31162;51.076;3.784;2023-01-04T06:11:55;2.90;;;2.67;;
45408;SDS011;31162;51.076;3.784;2023-01-04T06:14:21;4.43;;;2.80;;
45408;SDS011;31162;51.076;3.784;2023-01-04T06:16:47;4.47;;;3.10;;
45408;SDS011;31162;51.076;3.784;2023-01-04T06:19:12;3.88;;;2.60;;
45408;SDS011;31162;51.076;3.784;2023-01-04T06:21:38;2.72;;;2.38;;
45408;SDS011;31162;51.076;3.784;2023-01-04T06:24:04;3.15;;;2.60;;
45408;SDS011;31162;51.076;3.784;2023-01-04T06:26:29;5.13;;;4.63;;
45408;SDS011;31162;51.076;3.784;2023-01-04T06:28:55;2.83;;;2.20;;
45408;SDS011;31162;51.076;3.784;2023-01-04T06:31:21;2.50;;;2.08;;
45408;SDS011;31162;51.076;3.784;2023-01-04T06:33:46;3.35;;;2.10;;
45408;SDS011;31162;51.076;3.784;2023-01-04T06:36:12;2.72;;;2.08;;
45408;SDS011;31162;51.076;3.784;2023-01-04T06:38:38;2.10;;;1.90;;
45408;SDS011;31162;51.076;3.784;2023-01-04T06:41:03;2.28;;;1.77;;
45408;SDS011;31162;51.076;3.784;2023-01-04T06:43:29;4.72;;;2.17;;
45408;SDS011;31162;51.076;3.784;2023-01-04T06:45:55;5.07;;;2.53;;
45408;SDS011;31162;51.076;3.784;2023-01-04T06:48:20;3.85;;;2.90;;
45408;SDS011;31162;51.076;3.784;2023-01-04T06:50:46;3.97;;;2.80;;
45408;SDS011;31162;51.076;3.784;2023-01-04T06:53:12;5.55;;;3.45;;
45408;SDS011;31162;51.076;3.784;2023-01-04T06:55:37;5.95;;;3.15;;
45408;SDS011;31162;51.076;3.784;2023-01-04T06:58:03;4.60;;;3.20;;
45408;SDS011;31162;51.076;3.784;2023-01-04T07:00:28;4.93;;;3.60;;
45408;SDS011;31162;51.076;3.784;2023-01-04T07:02:54;5.13;;;3.30;;
45408;SDS011;31162;51.076;3.784;2023-01-04T07:05:20;4.43;;;3.35;;
45408;SDS011;31162;51.076;3.784;2023-01-04T07:07:45;4.35;;;3.53;;
45408;SDS011;31162;51.076;3.784;2023-01-04T07:10:11;4.32;;;3.35;;
45408;SDS011;31162;51.076;3.784;2023-01-04T07:12:37;5.28;;;3.53;;
45408;SDS011;31162;51.076;3.784;2023-01-04T07:15:03;5.38;;;3.60;;
45408;SDS011;31162;51.076;3.784;2023-01-04T07:17:30;5.05;;;3.55;;
45408;SDS011;31162;51.076;3.784;2023-01-04T07:19:55;5.55;;;4.30;;
45408;SDS011;31162;51.076;3.784;2023-01-04T07:22:21;5.80;;;3.78;;
45408;SDS011;31162;51.076;3.784;2023-01-04T07:24:47;6.68;;;4.28;;
45408;SDS011;31162;51.076;3.784;2023-01-04T07:27:12;7.53;;;4.65;;
45408;SDS011;31162;51.076;3.784;2023-01-04T07:29:38;5.25;;;4.15;;
45408;SDS011;31162;51.076;3.784;2023-01-04T07:32:07;6.43;;;4.25;;
45408;SDS011;31162;51.076;3.784;2023-01-04T07:34:36;5.85;;;4.07;;
45408;SDS011;31162;51.076;3.784;2023-01-04T07:37:03;6.95;;;3.80;;
45408;SDS011;31162;51.076;3.784;2023-01-04T07:39:31;9.20;;;3.65;;
45408;SDS011;31162;51.076;3.784;2023-01-04T07:41:56;5.00;;;3.58;;
45408;SDS011;31162;51.076;3.784;2023-01-04T07:44:22;7.78;;;3.25;;
45408;SDS011;31162;51.076;3.784;2023-01-04T07:46:50;5.13;;;3.30;;
45408;SDS011;31162;51.076;3.784;2023-01-04T07:49:16;4.65;;;2.75;;
45408;SDS011;31162;51.076;3.784;2023-01-04T07:51:48;6.43;;;3.28;;
45408;SDS011;31162;51.076;3.784;2023-01-04T07:54:14;5.72;;;2.95;;
45408;SDS011;31162;51.076;3.784;2023-01-04T07:56:42;4.05;;;3.30;;
45408;SDS011;31162;51.076;3.784;2023-01-04T07:59:09;10.10;;;3.70;;
45408;SDS011;31162;51.076;3.784;2023-01-04T08:01:35;6.28;;;3.20;;
45408;SDS011;31162;51.076;3.784;2023-01-04T08:04:05;6.30;;;3.65;;
45408;SDS011;31162;51.076;3.784;2023-01-04T08:06:35;3.80;;;3.40;;
45408;SDS011;31162;51.076;3.784;2023-01-04T08:09:02;8.30;;;3.53;;
45408;SDS011;31162;51.076;3.784;2023-01-04T08:11:29;7.20;;;3.58;;
45408;SDS011;31162;51.076;3.784;2023-01-04T08:13:55;6.72;;;4.10;;
45408;SDS011;31162;51.076;3.784;2023-01-04T08:16:22;5.85;;;3.70;;
45408;SDS011;31162;51.076;3.784;2023-01-04T08:21:19;5.68;;;3.78;;
45408;SDS011;31162;51.076;3.784;2023-01-04T08:23:45;6.78;;;4.30;;
45408;SDS011;31162;51.076;3.784;2023-01-04T08:26:12;6.20;;;4.28;;
45408;SDS011;31162;51.076;3.784;2023-01-04T08:28:39;5.22;;;4.13;;
45408;SDS011;31162;51.076;3.784;2023-01-04T08:31:07;5.05;;;4.38;;
45408;SDS011;31162;51.076;3.784;2023-01-04T08:33:36;5.32;;;4.57;;
45408;SDS011;31162;51.076;3.784;2023-01-04T08:36:07;6.55;;;4.22;;
45408;SDS011;31162;51.076;3.784;2023-01-04T08:38:33;7.35;;;4.55;;
45408;SDS011;31162;51.076;3.784;2023-01-04T08:40:58;8.43;;;4.07;;
45408;SDS011;31162;51.076;3.784;2023-01-04T08:43:24;7.85;;;4.30;;
45408;SDS011;31162;51.076;3.784;2023-01-04T08:45:50;6.75;;;4.10;;
45408;SDS011;31162;51.076;3.784;2023-01-04T08:48:15;5.78;;;3.88;;
45408;SDS011;31162;51.076;3.784;2023-01-04T08:50:41;7.93;;;4.07;;
45408;SDS011;31162;51.076;3.784;2023-01-04T08:53:07;7.22;;;3.65;;
45408;SDS011;31162;51.076;3.784;2023-01-04T08:55:32;5.15;;;3.40;;
45408;SDS011;31162;51.076;3.784;2023-01-04T08:57:58;5.63;;;3.30;;
45408;SDS011;31162;51.076;3.784;2023-01-04T09:00:24;6.40;;;3.13;;
45408;SDS011;31162;51.076;3.784;2023-01-04T09:02:50;7.20;;;3.20;;
45408;SDS011;31162;51.076;3.784;2023-01-04T09:05:16;8.18;;;3.40;;
45408;SDS011;31162;51.076;3.784;2023-01-04T09:07:43;8.57;;;3.47;;
45408;SDS011;31162;51.076;3.784;2023-01-04T09:10:08;9.45;;;3.72;;
45408;SDS011;31162;51.076;3.784;2023-01-04T09:12:34;9.25;;;4.07;;
45408;SDS011;31162;51.076;3.784;2023-01-04T09:15:00;6.00;;;3.78;;
45408;SDS011;31162;51.076;3.784;2023-01-04T09:17:26;6.53;;;4.05;;
45408;SDS011;31162;51.076;3.784;2023-01-04T09:19:52;8.55;;;4.75;;
45408;SDS011;31162;51.076;3.784;2023-01-04T09:22:17;6.68;;;4.78;;
45408;SDS011;31162;51.076;3.784;2023-01-04T09:24:43;7.95;;;4.60;;
45408;SDS011;31162;51.076;3.784;2023-01-04T09:27:09;6.35;;;4.57;;
45408;SDS011;31162;51.076;3.784;2023-01-04T09:29:34;9.43;;;4.97;;
45408;SDS011;31162;51.076;3.784;2023-01-04T09:32:00;5.93;;;4.68;;
45408;SDS011;31162;51.076;3.784;2023-01-04T09:34:26;5.60;;;4.85;;
45408;SDS011;31162;51.076;3.784;2023-01-04T09:36:51;9.13;;;4.80;;
45408;SDS011;31162;51.076;3.784;2023-01-04T09:39:17;7.43;;;4.53;;
45408;SDS011;31162;51.076;3.784;2023-01-04T09:41:44;5.53;;;4.28;;
45408;SDS011;31162;51.076;3.784;2023-01-04T09:47:04;4.68;;;3.70;;
45408;SDS011;31162;51.076;3.784;2023-01-04T09:49:37;6.07;;;4.00;;
45408;SDS011;31162;51.076;3.784;2023-01-04T09:57:12;5.32;;;4.05;;
45408;SDS011;31162;51.076;3.784;2023-01-04T09:59:45;6.70;;;4.13;;
45408;SDS011;31162;51.076;3.784;2023-01-04T10:02:12;5.07;;;4.15;;
45408;SDS011;31162;51.076;3.784;2023-01-04T10:04:47;4.18;;;3.80;;
45408;SDS011;31162;51.076;3.784;2023-01-04T10:07:25;5.97;;;3.60;;
45408;SDS011;31162;51.076;3.784;2023-01-04T10:09:53;7.20;;;4.15;;
45408;SDS011;31162;51.076;3.784;2023-01-04T10:20:41;4.80;;;3.33;;
45408;SDS011;31162;51.076;3.784;2023-01-04T10:23:31;3.28;;;2.92;;
45408;SDS011;31162;51.076;3.784;2023-01-04T10:26:43;4.97;;;3.22;;
45408;SDS011;31162;51.076;3.784;2023-01-04T10:32:02;3.50;;;2.90;;
45408;SDS011;31162;51.076;3.784;2023-01-04T10:34:41;4.05;;;2.70;;
45408;SDS011;31162;51.076;3.784;2023-01-04T10:39:38;2.88;;;2.60;;
45408;SDS011;31162;51.076;3.784;2023-01-04T10:45:14;3.33;;;2.85;;
45408;SDS011;31162;51.076;3.784;2023-01-04T10:48:26;8.55;;;3.40;;
45408;SDS011;31162;51.076;3.784;2023-01-04T10:50:37;11.18;;;5.20;;
45408;SDS011;31162;51.076;3.784;2023-01-04T10:53:22;4.88;;;2.78;;
45408;SDS011;31162;51.076;3.784;2023-01-04T10:56:01;2.58;;;2.38;;
45408;SDS011;31162;51.076;3.784;2023-01-04T10:59:02;24.55;;;22.08;;
45408;SDS011;31162;51.076;3.784;2023-01-04T11:04:42;4.20;;;2.47;;
45408;SDS011;31162;51.076;3.784;2023-01-04T11:07:24;3.58;;;2.40;;
45408;SDS011;31162;51.076;3.784;2023-01-04T11:12:42;2.63;;;2.10;;
45408;SDS011;31162;51.076;3.784;2023-01-04T11:15:10;2.30;;;2.20;;
45408;SDS011;31162;51.076;3.784;2023-01-04T11:17:36;3.92;;;2.70;;
45408;SDS011;31162;51.076;3.784;2023-01-04T11:20:02;3.78;;;2.80;;
45408;SDS011;31162;51.076;3.784;2023-01-04T11:22:33;3.42;;;3.03;;
45408;SDS011;31162;51.076;3.784;2023-01-04T11:25:07;2.92;;;2.55;;
45408;SDS011;31162;51.076;3.784;2023-01-04T11:27:40;4.47;;;2.60;;
45408;SDS011;31162;51.076;3.784;2023-01-04T11:30:16;3.05;;;2.50;;
45408;SDS011;31162;51.076;3.784;2023-01-04T11:32:50;4.40;;;2.50;;
45408;SDS011;31162;51.076;3.784;2023-01-04T11:35:24;2.43;;;2.23;;
45408;SDS011;31162;51.076;3.784;2023-01-04T11:38:11;2.47;;;2.25;;
45408;SDS011;31162;51.076;3.784;2023-01-04T11:40:38;2.60;;;2.40;;
45408;SDS011;31162;51.076;3.784;2023-01-04T11:43:16;3.08;;;2.28;;
45408;SDS011;31162;51.076;3.784;2023-01-04T11:46:05;2.58;;;2.38;;
45408;SDS011;31162;51.076;3.784;2023-01-04T11:48:42;2.70;;;2.50;;
45408;SDS011;31162;51.076;3.784;2023-01-04T11:53:40;3.03;;;2.30;;
45408;SDS011;31162;51.076;3.784;2023-01-04T11:58:40;4.40;;;2.00;;
45408;SDS011;31162;51.076;3.784;2023-01-04T12:01:17;2.90;;;2.22;;
45408;SDS011;31162;51.076;3.784;2023-01-04T12:03:48;2.63;;;2.35;;
45408;SDS011;31162;51.076;3.784;2023-01-04T12:06:58;2.65;;;2.45;;
45408;SDS011;31162;51.076;3.784;2023-01-04T12:09:11;3.40;;;2.65;;
45408;SDS011;31162;51.076;3.784;2023-01-04T12:11:40;2.80;;;2.45;;
45408;SDS011;31162;51.076;3.784;2023-01-04T12:14:28;3.80;;;2.75;;
45408;SDS011;31162;51.076;3.784;2023-01-04T12:17:03;3.22;;;2.53;;
45408;SDS011;31162;51.076;3.784;2023-01-04T12:19:50;2.92;;;2.47;;
45408;SDS011;31162;51.076;3.784;2023-01-04T12:22:20;3.38;;;3.05;;
45408;SDS011;31162;51.076;3.784;2023-01-04T12:24:53;2.92;;;2.70;;
45408;SDS011;31162;51.076;3.784;2023-01-04T12:27:19;3.42;;;3.03;;
45408;SDS011;31162;51.076;3.784;2023-01-04T12:29:58;3.20;;;2.90;;
45408;SDS011;31162;51.076;3.784;2023-01-04T12:34:51;5.45;;;3.33;;
45408;SDS011;31162;51.076;3.784;2023-01-04T12:45:41;6.97;;;3.22;;
45408;SDS011;31162;51.076;3.784;2023-01-04T12:51:23;5.50;;;3.13;;
45408;SDS011;31162;51.076;3.784;2023-01-04T12:53:50;5.22;;;2.92;;
45408;SDS011;31162;51.076;3.784;2023-01-04T12:56:22;6.80;;;3.13;;
45408;SDS011;31162;51.076;3.784;2023-01-04T12:59:30;4.57;;;2.92;;
45408;SDS011;31162;51.076;3.784;2023-01-04T13:02:08;3.97;;;2.65;;
45408;SDS011;31162;51.076;3.784;2023-01-04T13:04:40;4.32;;;2.55;;
45408;SDS011;31162;51.076;3.784;2023-01-04T13:07:08;7.80;;;2.83;;
45408;SDS011;31162;51.076;3.784;2023-01-04T13:09:50;7.45;;;2.50;;
45408;SDS011;31162;51.076;3.784;2023-01-04T13:12:23;10.00;;;2.97;;
45408;SDS011;31162;51.076;3.784;2023-01-04T13:15:18;7.00;;;2.70;;
45408;SDS011;31162;51.076;3.784;2023-01-04T13:17:48;8.80;;;3.03;;
45408;SDS011;31162;51.076;3.784;2023-01-04T13:20:15;10.55;;;3.25;;
45408;SDS011;31162;51.076;3.784;2023-01-04T13:22:51;9.93;;;3.97;;
45408;SDS011;31162;51.076;3.784;2023-01-04T13:25:19;10.50;;;3.80;;
45408;SDS011;31162;51.076;3.784;2023-01-04T13:27:59;8.90;;;3.70;;
45408;SDS011;31162;51.076;3.784;2023-01-04T13:30:37;9.32;;;3.47;;
45408;SDS011;31162;51.076;3.784;2023-01-04T13:33:07;10.57;;;2.88;;
45408;SDS011;31162;51.076;3.784;2023-01-04T13:35:58;10.32;;;2.85;;
45408;SDS011;31162;51.076;3.784;2023-01-04T13:38:27;9.18;;;3.53;;
45408;SDS011;31162;51.076;3.784;2023-01-04T13:40:55;8.43;;;3.03;;
45408;SDS011;31162;51.076;3.784;2023-01-04T13:44:23;11.43;;;3.15;;
45408;SDS011;31162;51.076;3.784;2023-01-04T13:46:35;12.45;;;3.22;;
45408;SDS011;31162;51.076;3.784;2023-01-04T13:49:06;13.63;;;3.70;;
45408;SDS011;31162;51.076;3.784;2023-01-04T13:51:34;14.30;;;3.60;;
45408;SDS011;31162;51.076;3.784;2023-01-04T13:54:01;11.18;;;3.20;;
45408;SDS011;31162;51.076;3.784;2023-01-04T13:56:30;17.70;;;3.53;;
45408;SDS011;31162;51.076;3.784;2023-01-04T13:58:57;18.95;;;4.20;;
45408;SDS011;31162;51.076;3.784;2023-01-04T14:01:25;15.65;;;3.88;;
45408;SDS011;31162;51.076;3.784;2023-01-04T14:06:30;13.48;;;3.70;;
45408;SDS011;31162;51.076;3.784;2023-01-04T14:09:34;14.52;;;3.40;;
45408;SDS011;31162;51.076;3.784;2023-01-04T14:11:59;13.48;;;3.33;;
45408;SDS011;31162;51.076;3.784;2023-01-04T14:14:49;11.85;;;2.95;;
45408;SDS011;31162;51.076;3.784;2023-01-04T14:17:27;13.85;;;3.30;;
45408;SDS011;31162;51.076;3.784;2023-01-04T14:38:37;10.00;;;3.50;;
45408;SDS011;31162;51.076;3.784;2023-01-04T14:41:18;7.45;;;2.95;;
45408;SDS011;31162;51.076;3.784;2023-01-04T14:46:14;7.35;;;3.05;;
45408;SDS011;31162;51.076;3.784;2023-01-04T14:48:40;7.45;;;3.00;;
45408;SDS011;31162;51.076;3.784;2023-01-04T14:51:05;9.45;;;3.60;;
45408;SDS011;31162;51.076;3.784;2023-01-04T14:53:32;9.98;;;4.72;;
45408;SDS011;31162;51.076;3.784;2023-01-04T14:55:58;11.23;;;4.25;;
45408;SDS011;31162;51.076;3.784;2023-01-04T14:58:24;8.85;;;4.32;;
45408;SDS011;31162;51.076;3.784;2023-01-04T15:00:49;7.03;;;3.92;;
45408;SDS011;31162;51.076;3.784;2023-01-04T15:03:15;9.13;;;4.43;;
45408;SDS011;31162;51.076;3.784;2023-01-04T15:05:41;13.23;;;4.30;;
45408;SDS011;31162;51.076;3.784;2023-01-04T15:08:10;11.93;;;3.85;;
45408;SDS011;31162;51.076;3.784;2023-01-04T15:10:36;14.75;;;3.92;;
45408;SDS011;31162;51.076;3.784;2023-01-04T15:13:01;15.15;;;3.33;;
45408;SDS011;31162;51.076;3.784;2023-01-04T15:15:28;19.63;;;3.58;;
45408;SDS011;31162;51.076;3.784;2023-01-04T15:17:56;17.10;;;4.00;;
45408;SDS011;31162;51.076;3.784;2023-01-04T15:20:22;19.88;;;4.20;;
45408;SDS011;31162;51.076;3.784;2023-01-04T15:22:48;22.83;;;4.55;;
45408;SDS011;31162;51.076;3.784;2023-01-04T15:25:14;18.73;;;3.85;;
45408;SDS011;31162;51.076;3.784;2023-01-04T15:27:40;23.17;;;4.20;;
45408;SDS011;31162;51.076;3.784;2023-01-04T15:30:06;26.05;;;4.63;;
45408;SDS011;31162;51.076;3.784;2023-01-04T15:32:33;18.40;;;4.30;;
45408;SDS011;31162;51.076;3.784;2023-01-04T15:34:59;26.50;;;4.80;;
45408;SDS011;31162;51.076;3.784;2023-01-04T15:37:25;36.35;;;5.22;;
45408;SDS011;31162;51.076;3.784;2023-01-04T15:39:51;34.78;;;6.03;;
45408;SDS011;31162;51.076;3.784;2023-01-04T15:42:16;27.23;;;5.15;;
45408;SDS011;31162;51.076;3.784;2023-01-04T15:45:00;36.45;;;6.05;;
45408;SDS011;31162;51.076;3.784;2023-01-04T15:47:29;32.85;;;5.55;;
45408;SDS011;31162;51.076;3.784;2023-01-04T15:49:55;33.63;;;6.97;;
45408;SDS011;31162;51.076;3.784;2023-01-04T15:52:21;28.83;;;6.10;;
45408;SDS011;31162;51.076;3.784;2023-01-04T15:54:47;40.30;;;6.60;;
45408;SDS011;31162;51.076;3.784;2023-01-04T15:57:13;37.83;;;7.15;;
45408;SDS011;31162;51.076;3.784;2023-01-04T15:59:39;30.85;;;6.32;;
45408;SDS011;31162;51.076;3.784;2023-01-04T16:02:04;37.10;;;7.03;;
45408;SDS011;31162;51.076;3.784;2023-01-04T16:04:30;34.70;;;6.13;;
45408;SDS011;31162;51.076;3.784;2023-01-04T16:06:56;35.85;;;6.18;;
45408;SDS011;31162;51.076;3.784;2023-01-04T16:09:22;29.58;;;6.65;;
45408;SDS011;31162;51.076;3.784;2023-01-04T16:11:48;34.95;;;6.50;;
45408;SDS011;31162;51.076;3.784;2023-01-04T16:14:33;33.03;;;6.68;;
45408;SDS011;31162;51.076;3.784;2023-01-04T16:16:59;42.08;;;7.63;;
45408;SDS011;31162;51.076;3.784;2023-01-04T16:19:24;39.80;;;7.70;;
45408;SDS011;31162;51.076;3.784;2023-01-04T16:21:50;39.60;;;8.50;;
45408;SDS011;31162;51.076;3.784;2023-01-04T16:24:16;38.40;;;7.85;;
45408;SDS011;31162;51.076;3.784;2023-01-04T16:26:42;36.20;;;6.85;;
45408;SDS011;31162;51.076;3.784;2023-01-04T16:29:09;37.92;;;6.70;;
45408;SDS011;31162;51.076;3.784;2023-01-04T16:31:35;38.13;;;8.27;;
45408;SDS011;31162;51.076;3.784;2023-01-04T16:34:02;40.55;;;8.70;;
45408;SDS011;31162;51.076;3.784;2023-01-04T16:36:28;36.53;;;7.20;;
45408;SDS011;31162;51.076;3.784;2023-01-04T16:38:54;34.25;;;8.20;;
45408;SDS011;31162;51.076;3.784;2023-01-04T16:41:20;31.95;;;7.00;;
45408;SDS011;31162;51.076;3.784;2023-01-04T16:43:47;35.92;;;7.20;;
45408;SDS011;31162;51.076;3.784;2023-01-04T16:48:49;33.38;;;7.28;;
45408;SDS011;31162;51.076;3.784;2023-01-04T16:51:23;36.25;;;6.88;;
45408;SDS011;31162;51.076;3.784;2023-01-04T16:53:50;34.53;;;6.85;;
45408;SDS011;31162;51.076;3.784;2023-01-04T16:56:17;40.22;;;6.95;;
45408;SDS011;31162;51.076;3.784;2023-01-04T16:58:45;29.73;;;6.35;;
45408;SDS011;31162;51.076;3.784;2023-01-04T17:01:13;37.78;;;8.00;;
45408;SDS011;31162;51.076;3.784;2023-01-04T17:03:41;33.00;;;6.65;;
45408;SDS011;31162;51.076;3.784;2023-01-04T17:06:16;41.17;;;7.35;;
45408;SDS011;31162;51.076;3.784;2023-01-04T17:08:44;40.13;;;7.32;;
45408;SDS011;31162;51.076;3.784;2023-01-04T17:11:11;35.88;;;8.25;;
45408;SDS011;31162;51.076;3.784;2023-01-04T17:13:39;36.35;;;7.45;;
45408;SDS011;31162;51.076;3.784;2023-01-04T17:16:05;40.75;;;7.80;;